Amunt
Inicio > meteoXarxa
Fes-te'n soci

METEOXARXA

Sta. Magdalena de Polpís
Ubicació
Comarca el Baix Maestrat
Altitud (msnm) 123
Posició geogràfica 40° 21' 21.24" N, 00° 18' 8.64" E
Model Hellmann 200
Presa de dades
Font de les dades Ximo Vives
Estadístiques. Resum
Data Temperatura (ºC) Humitat (%) Pressió (hPa) Vent (km/h) Precipit. (mm)
Mínima Mitjana Màxima Mínima Mitjana Màxima Mínima Mitjana Màxima Predom. Mitjana Ràfega màxima Total Dies de pluja
Mínima Mitjana Màxima Mínima Mitjana Màxima
Últimes dades diàries
19-01-2017 0,8     5,1     7,9 ENE 7,1 46,7 23,0  
18-01-2017 0,8     4,1     9,3 SSE 4,5 32,2 0,0  
17-01-2017 2,8     8,4     12,0 NO 11,1 43,5 0,0  
16-01-2017 10,4     13,0     16,8 NO 13,8 56,3 0,0  
15-01-2017 4,2     9,8     14,0 NO 8,2 48,3 0,0  
14-01-2017 5,8     9,0     12,2 NO 12,4 46,7 0,0  
13-01-2017 7,8     12,3     16,8 NO 10,5 51,5 0,0  
12-01-2017 6,1     11,9     20,1 O 1,8 14,5 0,0  
11-01-2017 7,4     11,2     14,1 ESE 6,0 33,8 0,0  
10-01-2017 4,9     11,9     15,6 NO 9,7 61,2 0,0  
09-01-2017 4,4     9,8     14,7 SSE 2,1 20,9 0,0  
08-01-2017 -0,4     7,4     15,8 O 1,0 19,3 0,0  
07-01-2017 0,7     6,8     13,9 O 1,3 19,3 0,0  
06-01-2017 1,2     6,6     13,3 O 1,4 20,9 0,0  
05-01-2017 3,0     11,1     16,1 ESE 2,7 22,5 0,0  
04-01-2017 5,9     9,8     15,1 ONO 1,3 17,7 0,0  
03-01-2017 2,2     7,9     13,9 O 0,8 17,7 0,0  
02-01-2017 2,6     7,2     13,6 SO 0,8 14,5 0,0  
01-01-2017 0,9     6,5     13,7 O 0,8 17,7 0,0  
31-12-2016 3,0     7,8     14,4 E 0,8 20,9 0,0  
30-12-2016 1,9     7,0     15,1 O 0,5 11,3 0,0  
29-12-2016 -0,6     5,9     15,3 O 0,6 14,5 0,0  
28-12-2016 2,7     8,1     17,1 O 0,5 11,3 0,0  
27-12-2016 2,4     8,1     15,9 O 0,5 12,9 0,0  
26-12-2016 3,9     9,2     17,9 O 0,5 12,9 0,0  
25-12-2016 5,3     9,9     18,7 O 0,5 14,5 0,0  
24-12-2016 5,0     9,8     17,6 O 1,0 16,1 0,0  
23-12-2016 5,1     10,3     18,1 O 0,5 11,3 0,0  
22-12-2016 7,5     12,8     18,3 SO 1,9 16,1 0,0  
21-12-2016 9,0     12,6     17,2 ONO 4,7 30,6 0,0  
20-12-2016 10,6     12,3     15,9 NO 14,5 46,7 0,0  
19-12-2016 6,9     8,8     10,6 NE 6,3 37,0 12,2  
Dades del mes en curs (actualitzades fins l'últim dia disponible)
01/2017 -0,4 3,8 10,4 8,9 7,9 14,2 20,1   5,1 61,2 23,0  
Últimes dades mensuals
12/2016 -0,6 6,1 13,7 10,3 10,6 16,1 19,2 2,2 46,7 123,5 7
11/2016 3,6 9,1 14,9 13,6 13,0 18,6 25,3 3,2 53,1 84,4 9
10/2016 9,7 14,3 18,2 18,5 17,8 23,5 27,7 1,7 35,4 27,9 13
09/2016 11,8 17,4 23,3 22,7 24,4 28,0 36,7 3,4 48,3 24,2 4
08/2016 15,6 19,5 23,8 24,8 25,6 29,8 32,9 3,9 35,4 2,1 2
07/2016 14,8 19,5 22,5 25,3 25,7 30,3 33,9 4,7 41,8 0,4 1
06/2016 12,0 16,5 20,6 22,3 24,0 27,6 31,8 4,9 43,5 12,8 6
05/2016 8,3 12,7 16,8 17,5 15,8 22,4 27,2 5,2 64,4 36,7 10
04/2016 4,2 9,7 13,4 14,7 14,2 19,9 26,7 5,2 61,2 58,8 8
03/2016 3,5 7,6 11,0 12,3 10,4 17,2 23,4 6,6 72,4 86,3 6
02/2016 -0,7 6,0 11,8 11,6 11,4 17,6 25,8 6,3 80,5 12,0 6
01/2016 1,4 6,2 10,3 11,4 12,3 16,7 22,8 3,6 67,6 2,6 4
12/2015 2,8 6,7 12,4 11,3 15,1 17,6 21,3 0,9 19,3 0,6 1
Dades de l'any en curs (actualitzades fins l'últim dia disponible)
2017 -0,4 3,8 10,4 8,9 7,9 14,2 20,1   5,1 61,2 23,0  
Últimes dades anuals
2012 539,1 58
2013 584,9 69
2014 1,4 8,8 16,6 13,2 11,8 18,1 23,6 4,5 61,2 416,0 73
2015 -1,4 12,2 24,7 17,2 7,6 22,7 36,4 4,6 91,7 667,4 62
2016 -0,7 12,1 23,8 17,1 10,4 22,3 36,7 4,2 80,5 471,7 76